Terminal Aerodrome Forecast
Issued by NWS

Home | Current Version | Previous Version | Text Only | Print | Product List | Glossary On
Versions: 1 2 3 4 5 6 7 8 9 10 11 12 13 14 15 16 17 18 19 20 21
549
FTUS41 KGYX 190905 AAA
TAFAUG
TAF AMD
KAUG 190905Z 1909/2006 18003KT P6SM FEW040
     FM191200 27002KT P6SM OVC050
     FM192100 22002KT P6SM OVC250
     FM200300 21003KT P6SM OVC100=

USA.gov is the U.S. government's official web portal to all federal, state and local government web resources and services.